Time,TemperatureF,DewpointF,PressureIn,WindDirection,WindDirectionDegrees,WindSpeedMPH,WindSpeedGustMPH,Humidity,HourlyPrecipIn,Conditions,Clouds,dailyrainin,SoftwareType,DateUTC
2013-02-14 00:02:00,39.0,31.0,29.86,WNW,295,2.0,6.0,74,0.00,,,0.19,,2013-02-14 05:02:00,
2013-02-14 00:11:00,39.0,31.0,29.86,WNW,295,2.0,6.0,74,0.00,,,0.19,,2013-02-14 05:11:00,
2013-02-14 00:22:00,39.0,32.0,29.87,NW,316,2.0,4.0,75,0.00,,,0.18,,2013-02-14 05:22:00,
2013-02-14 00:32:00,38.0,31.0,29.88,NNW,327,0.0,2.0,77,0.00,,,0.18,,2013-02-14 05:32:00,
2013-02-14 00:42:00,38.0,31.0,29.88,NNW,327,0.0,2.0,77,0.00,,,0.18,,2013-02-14 05:42:00,
2013-02-14 00:52:00,37.0,31.0,29.89,NW,326,2.0,4.0,79,0.00,,,0.18,,2013-02-14 05:52:00,
2013-02-14 01:02:00,37.0,32.0,29.89,NNW,327,2.0,3.0,82,0.00,,,0.18,,2013-02-14 06:02:00,
2013-02-14 01:11:00,39.0,32.0,29.90,NW,326,5.0,8.0,76,0.00,,,0.18,,2013-02-14 06:11:00,
2013-02-14 01:21:00,39.0,32.0,29.90,NW,326,5.0,8.0,76,0.00,,,0.18,,2013-02-14 06:21:00,
2013-02-14 01:32:00,40.0,31.0,29.91,NW,315,3.0,10.0,70,0.00,,,0.18,,2013-02-14 06:32:00,
2013-02-14 01:42:00,40.0,31.0,29.91,NW,315,3.0,10.0,70,0.00,,,0.18,,2013-02-14 06:42:00,
2013-02-14 01:52:00,39.0,30.0,29.92,WNW,292,3.0,8.0,69,0.00,,,0.18,,2013-02-14 06:52:00,
2013-02-14 02:01:00,39.0,29.0,29.92,WNW,294,2.0,9.0,68,0.00,,,0.18,,2013-02-14 07:01:00,
2013-02-14 02:11:00,39.0,29.0,29.92,NW,317,2.0,5.0,68,0.00,,,0.18,,2013-02-14 07:11:00,
2013-02-14 02:21:00,39.0,29.0,29.92,NW,317,2.0,5.0,68,0.00,,,0.18,,2013-02-14 07:21:00,
2013-02-14 02:32:00,38.0,29.0,29.92,North,355,1.0,4.0,71,0.00,,,0.18,,2013-02-14 07:32:00,
2013-02-14 02:42:00,38.0,29.0,29.92,North,355,1.0,4.0,71,0.00,,,0.18,,2013-02-14 07:42:00,
2013-02-14 02:52:00,37.0,29.0,29.92,NNW,332,0.0,1.0,72,0.00,,,0.18,,2013-02-14 07:52:00,
2013-02-14 03:01:00,37.0,29.0,29.92,NW,325,1.0,3.0,72,0.00,,,0.18,,2013-02-14 08:01:00,
2013-02-14 03:11:00,37.0,29.0,29.92,NW,325,1.0,3.0,72,0.00,,,0.18,,2013-02-14 08:11:00,
2013-02-14 03:22:00,36.0,29.0,29.93,NW,319,1.0,3.0,74,0.00,,,0.18,,2013-02-14 08:22:00,
2013-02-14 03:32:00,36.0,28.0,29.93,NW,306,3.0,9.0,73,0.00,,,0.18,,2013-02-14 08:32:00,
2013-02-14 03:43:00,36.0,28.0,29.93,NW,306,3.0,9.0,73,0.00,,,0.18,,2013-02-14 08:43:00,
2013-02-14 03:52:00,37.0,28.0,29.94,NNW,332,1.0,4.0,70,0.00,,,0.18,,2013-02-14 08:52:00,
2013-02-14 04:02:00,37.0,28.0,29.94,NW,312,3.0,9.0,70,0.00,,,0.18,,2013-02-14 09:02:00,
2013-02-14 04:11:00,37.0,28.0,29.94,NW,309,1.0,4.0,69,0.00,,,0.18,,2013-02-14 09:11:00,
2013-02-14 04:21:00,37.0,28.0,29.94,NW,309,1.0,4.0,69,0.00,,,0.18,,2013-02-14 09:21:00,
2013-02-14 04:32:00,37.0,28.0,29.94,NW,325,3.0,6.0,69,0.00,,,0.18,,2013-02-14 09:32:00,
2013-02-14 04:42:00,37.0,28.0,29.94,NW,325,3.0,6.0,69,0.00,,,0.18,,2013-02-14 09:42:00,
2013-02-14 04:52:00,37.0,28.0,29.94,North,5,1.0,4.0,70,0.00,,,0.18,,2013-02-14 09:52:00,
2013-02-14 05:02:00,37.0,28.0,29.94,SE,124,0.0,2.0,70,0.00,,,0.18,,2013-02-14 10:02:00,
2013-02-14 05:11:00,36.0,28.0,29.94,NW,326,2.0,4.0,72,0.00,,,0.11,,2013-02-14 10:11:00,
2013-02-14 05:21:00,36.0,28.0,29.94,NW,326,2.0,4.0,72,0.00,,,0.11,,2013-02-14 10:21:00,
2013-02-14 05:32:00,35.0,27.0,29.95,NNW,331,1.0,3.0,71,0.00,,,0.11,,2013-02-14 10:32:00,
2013-02-14 05:42:00,35.0,27.0,29.95,NNW,331,1.0,3.0,71,0.00,,,0.11,,2013-02-14 10:42:00,
2013-02-14 05:52:00,36.0,27.0,29.96,NNW,341,2.0,8.0,69,0.00,,,0.11,,2013-02-14 10:52:00,
2013-02-14 06:02:00,36.0,26.0,29.96,NW,319,1.0,4.0,67,0.00,,,0.11,,2013-02-14 11:02:00,
2013-02-14 06:11:00,36.0,26.0,29.97,NW,308,4.0,10.0,67,0.00,,,0.11,,2013-02-14 11:11:00,
2013-02-14 06:21:00,36.0,26.0,29.97,NW,308,4.0,10.0,67,0.00,,,0.11,,2013-02-14 11:21:00,
2013-02-14 06:32:00,36.0,26.0,29.98,NW,324,2.0,10.0,66,0.00,,,0.06,,2013-02-14 11:32:00,
2013-02-14 06:42:00,36.0,26.0,29.98,NW,324,2.0,10.0,66,0.00,,,0.06,,2013-02-14 11:42:00,
2013-02-14 06:52:00,36.0,26.0,29.98,NW,310,1.0,3.0,66,0.00,,,0.06,,2013-02-14 11:52:00,
2013-02-14 07:02:00,36.0,26.0,29.99,NW,306,2.0,3.0,66,0.00,,,0.06,,2013-02-14 12:02:00,
2013-02-14 07:12:00,36.0,26.0,29.99,NW,306,2.0,3.0,66,0.00,,,0.06,,2013-02-14 12:12:00,
2013-02-14 07:22:00,35.0,25.0,30.00,North,349,0.0,1.0,67,0.00,,,0.05,,2013-02-14 12:22:00,
2013-02-14 07:32:00,35.0,26.0,30.00,NNW,348,0.0,2.0,68,0.00,,,0.05,,2013-02-14 12:32:00,
2013-02-14 07:42:00,33.0,26.0,30.01,North,360,2.0,3.0,75,0.00,,,0.05,,2013-02-14 12:42:00,
2013-02-14 07:53:00,33.0,26.0,30.01,North,360,2.0,3.0,75,0.00,,,0.05,,2013-02-14 12:53:00,
2013-02-14 08:02:00,34.0,26.0,30.02,NNW,346,2.0,4.0,73,0.00,,,0.05,,2013-02-14 13:02:00,
2013-02-14 08:11:00,34.0,26.0,30.02,NNW,346,2.0,4.0,73,0.00,,,0.05,,2013-02-14 13:11:00,
2013-02-14 08:21:00,36.0,27.0,30.03,NNW,327,3.0,6.0,69,0.00,,,0.02,,2013-02-14 13:21:00,
2013-02-14 08:32:00,37.0,27.0,30.04,NNW,342,1.0,5.0,67,0.00,,,0.02,,2013-02-14 13:32:00,
2013-02-14 08:42:00,37.0,27.0,30.04,NNW,342,1.0,5.0,67,0.00,,,0.02,,2013-02-14 13:42:00,
2013-02-14 08:52:00,38.0,27.0,30.05,North,355,3.0,6.0,64,0.00,,,0.02,,2013-02-14 13:52:00,
2013-02-14 09:01:00,39.0,27.0,30.06,NNE,29,2.0,4.0,63,0.00,,,0.02,,2013-02-14 14:01:00,
2013-02-14 09:11:00,39.0,27.0,30.06,NNW,345,1.0,4.0,63,0.00,,,0.02,,2013-02-14 14:11:00,
2013-02-14 09:21:00,39.0,27.0,30.06,NNW,345,1.0,4.0,63,0.00,,,0.02,,2013-02-14 14:21:00,
2013-02-14 09:32:00,40.0,28.0,30.06,NNW,333,1.0,4.0,62,0.00,,,0.02,,2013-02-14 14:32:00,
2013-02-14 09:42:00,40.0,28.0,30.06,NNW,333,1.0,4.0,62,0.00,,,0.02,,2013-02-14 14:42:00,
2013-02-14 09:52:00,40.0,28.0,30.06,West,269,2.0,5.0,61,0.00,,,0.02,,2013-02-14 14:52:00,
2013-02-14 10:02:00,41.0,28.0,30.06,NE,49,2.0,7.0,60,0.00,,,0.02,,2013-02-14 15:02:00,
2013-02-14 10:11:00,41.0,28.0,30.06,NE,49,2.0,7.0,60,0.00,,,0.02,,2013-02-14 15:11:00,
2013-02-14 10:21:00,42.0,30.0,30.06,NE,51,2.0,4.0,61,0.00,,,0.02,,2013-02-14 15:21:00,
2013-02-14 10:32:00,42.0,29.0,30.05,West,277,3.0,6.0,60,0.00,,,0.02,,2013-02-14 15:32:00,
2013-02-14 10:42:00,42.0,29.0,30.05,West,277,3.0,6.0,60,0.00,,,0.02,,2013-02-14 15:42:00,
2013-02-14 10:52:00,43.0,28.0,30.05,NW,319,1.0,5.0,56,0.00,,,0.02,,2013-02-14 15:52:00,
2013-02-14 11:02:00,42.0,27.0,30.05,West,260,3.0,8.0,56,0.00,,,0.02,,2013-02-14 16:02:00,
2013-02-14 11:11:00,42.0,29.0,30.06,West,263,4.0,6.0,59,0.00,,,0.02,,2013-02-14 16:11:00,
2013-02-14 11:21:00,42.0,29.0,30.06,West,263,4.0,6.0,59,0.00,,,0.02,,2013-02-14 16:21:00,
2013-02-14 11:32:00,43.0,29.0,30.04,WSW,258,4.0,7.0,57,0.00,,,0.01,,2013-02-14 16:32:00,
2013-02-14 11:42:00,43.0,29.0,30.04,WSW,258,4.0,7.0,57,0.00,,,0.01,,2013-02-14 16:42:00,
2013-02-14 11:51:00,44.0,29.0,30.03,ENE,63,3.0,5.0,56,0.00,,,0.01,,2013-02-14 16:51:00,
2013-02-14 12:01:00,45.0,30.0,30.04,SW,228,2.0,5.0,55,0.00,,,0.01,,2013-02-14 17:01:00,
2013-02-14 12:11:00,45.0,30.0,30.04,WSW,245,3.0,6.0,55,0.00,,,0.01,,2013-02-14 17:11:00,
2013-02-14 12:21:00,45.0,30.0,30.04,WSW,245,3.0,6.0,55,0.00,,,0.01,,2013-02-14 17:21:00,
2013-02-14 12:32:00,47.0,32.0,30.03,SW,214,4.0,9.0,56,0.00,,,0.01,,2013-02-14 17:32:00,
2013-02-14 12:42:00,47.0,32.0,30.03,SW,214,4.0,9.0,56,0.00,,,0.01,,2013-02-14 17:42:00,
2013-02-14 12:52:00,47.0,31.0,30.02,SW,223,4.0,8.0,54,0.00,,,0.01,,2013-02-14 17:52:00,
2013-02-14 13:01:00,47.0,30.0,30.02,WSW,242,5.0,11.0,52,0.00,,,0.01,,2013-02-14 18:01:00,
2013-02-14 13:11:00,47.0,30.0,30.02,WSW,242,5.0,11.0,52,0.00,,,0.01,,2013-02-14 18:11:00,
2013-02-14 13:23:00,48.0,30.0,30.02,WSW,251,6.0,11.0,50,0.01,,,0.01,,2013-02-14 18:23:00,
2013-02-14 13:32:00,48.0,29.0,30.01,WSW,254,4.0,10.0,48,0.01,,,0.01,,2013-02-14 18:32:00,
2013-02-14 13:42:00,48.0,29.0,30.01,WSW,254,4.0,10.0,48,0.01,,,0.01,,2013-02-14 18:42:00,
2013-02-14 13:52:00,49.0,31.0,30.01,SW,228,5.0,10.0,49,0.01,,,0.01,,2013-02-14 18:52:00,
2013-02-14 14:02:00,49.0,29.0,30.00,SW,220,7.0,11.0,45,0.01,,,0.01,,2013-02-14 19:02:00,
2013-02-14 14:11:00,50.0,29.0,29.99,West,263,6.0,12.0,45,0.00,,,0.01,,2013-02-14 19:11:00,
2013-02-14 14:22:00,50.0,29.0,29.99,West,263,6.0,12.0,45,0.00,,,0.01,,2013-02-14 19:22:00,
2013-02-14 14:32:00,50.0,29.0,29.98,WSW,247,5.0,11.0,45,0.00,,,0.01,,2013-02-14 19:32:00,
2013-02-14 14:42:00,50.0,29.0,29.98,WSW,247,5.0,11.0,45,0.00,,,0.01,,2013-02-14 19:42:00,
2013-02-14 14:52:00,50.0,29.0,29.97,SSW,194,4.0,10.0,45,0.00,,,0.01,,2013-02-14 19:52:00,
2013-02-14 15:01:00,51.0,30.0,29.97,South,175,3.0,13.0,44,0.00,,,0.01,,2013-02-14 20:01:00,
2013-02-14 15:11:00,51.0,29.0,29.97,SSE,158,5.0,10.0,43,0.00,,,0.01,,2013-02-14 20:11:00,
2013-02-14 15:21:00,51.0,29.0,29.97,SSE,158,5.0,10.0,43,0.00,,,0.01,,2013-02-14 20:21:00,
2013-02-14 15:32:00,51.0,29.0,29.98,SSW,201,4.0,11.0,43,0.00,,,0.01,,2013-02-14 20:32:00,
2013-02-14 15:42:00,51.0,29.0,29.98,SSW,201,4.0,11.0,43,0.00,,,0.01,,2013-02-14 20:42:00,
2013-02-14 15:52:00,52.0,30.0,29.98,SSE,165,7.0,10.0,43,0.00,,,0.01,,2013-02-14 20:52:00,
2013-02-14 16:02:00,52.0,31.0,29.98,WSW,252,3.0,8.0,45,0.00,,,0.01,,2013-02-14 21:02:00,
2013-02-14 16:11:00,52.0,31.0,29.98,WSW,252,3.0,8.0,45,0.00,,,0.01,,2013-02-14 21:11:00,
2013-02-14 16:21:00,52.0,29.0,29.98,SSW,200,5.0,8.0,41,0.00,,,0.01,,2013-02-14 21:21:00,
2013-02-14 16:31:00,52.0,29.0,29.98,SSE,163,4.0,11.0,41,0.00,,,0.01,,2013-02-14 21:31:00,
2013-02-14 16:42:00,52.0,29.0,29.98,SSE,163,4.0,11.0,41,0.00,,,0.01,,2013-02-14 21:42:00,
2013-02-14 16:51:00,52.0,28.0,29.98,SW,232,5.0,10.0,40,0.00,,,0.01,,2013-02-14 21:51:00,
2013-02-14 17:02:00,53.0,30.0,29.98,WSW,252,5.0,8.0,41,0.00,,,0.01,,2013-02-14 22:02:00,
2013-02-14 17:11:00,52.0,29.0,29.98,South,176,3.0,7.0,41,0.00,,,0.01,,2013-02-14 22:11:00,
2013-02-14 17:21:00,52.0,29.0,29.98,South,176,3.0,7.0,41,0.00,,,0.01,,2013-02-14 22:21:00,
2013-02-14 17:32:00,52.0,30.0,29.98,SSW,209,4.0,7.0,43,0.00,,,0.01,,2013-02-14 22:32:00,
2013-02-14 17:42:00,52.0,30.0,29.98,SSW,209,4.0,7.0,43,0.00,,,0.01,,2013-02-14 22:42:00,
2013-02-14 17:52:00,51.0,30.0,29.98,SW,221,5.0,7.0,44,0.00,,,0.01,,2013-02-14 22:52:00,
2013-02-14 18:01:00,50.0,32.0,29.98,SSW,206,2.0,5.0,49,0.00,,,0.01,,2013-02-14 23:01:00,
2013-02-14 18:11:00,50.0,32.0,29.98,SSW,206,2.0,5.0,49,0.00,,,0.01,,2013-02-14 23:11:00,
2013-02-14 18:21:00,49.0,32.0,29.99,South,186,1.0,3.0,51,0.00,,,0.01,,2013-02-14 23:21:00,
2013-02-14 18:32:00,48.0,32.0,29.99,SSW,210,3.0,6.0,53,0.00,,,0.01,,2013-02-14 23:32:00,
2013-02-14 18:42:00,48.0,32.0,29.99,SSW,210,3.0,6.0,53,0.00,,,0.01,,2013-02-14 23:42:00,
2013-02-14 18:52:00,47.0,31.0,29.99,SSW,198,2.0,6.0,54,0.00,,,0.01,,2013-02-14 23:52:00,
2013-02-14 19:01:00,47.0,31.0,29.99,SSW,198,2.0,6.0,54,0.00,,,0.01,,2013-02-15 00:01:00,
2013-02-14 19:11:00,47.0,31.0,29.99,SSW,198,2.0,6.0,54,0.00,,,0.01,,2013-02-15 00:11:00,
2013-02-14 19:22:00,46.0,32.0,30.01,SW,236,3.0,5.0,58,0.00,,,0.01,,2013-02-15 00:22:00,
2013-02-14 19:32:00,45.0,32.0,30.01,SW,226,1.0,3.0,60,0.00,,,0.01,,2013-02-15 00:32:00,
2013-02-14 19:42:00,45.0,32.0,30.01,SW,226,1.0,3.0,60,0.00,,,0.01,,2013-02-15 00:42:00,
2013-02-14 19:52:00,45.0,32.0,30.01,SW,227,1.0,3.0,60,0.00,,,0.01,,2013-02-15 00:52:00,
2013-02-14 20:02:00,43.0,32.0,30.01,SW,227,0.0,1.0,64,0.00,,,0.01,,2013-02-15 01:02:00,
2013-02-14 20:11:00,43.0,32.0,30.01,SW,227,0.0,1.0,64,0.00,,,0.01,,2013-02-15 01:11:00,
2013-02-14 20:21:00,41.0,32.0,30.01,WNW,287,0.0,1.0,70,0.00,,,0.01,,2013-02-15 01:21:00,
2013-02-14 20:32:00,40.0,32.0,30.02,WNW,287,0.0,0.0,72,0.00,,,0.01,,2013-02-15 01:32:00,
2013-02-14 20:41:00,40.0,32.0,30.02,WNW,287,0.0,0.0,72,0.00,,,0.01,,2013-02-15 01:41:00,
2013-02-14 20:52:00,38.0,31.0,30.03,NNW,327,1.0,3.0,75,0.00,,,0.01,,2013-02-15 01:52:00,
2013-02-14 21:01:00,38.0,31.0,30.02,NW,324,1.0,2.0,76,0.00,,,0.01,,2013-02-15 02:01:00,
2013-02-14 21:11:00,40.0,32.0,30.03,ENE,67,0.0,3.0,74,0.00,,,0.01,,2013-02-15 02:11:00,
2013-02-14 21:21:00,40.0,32.0,30.03,ENE,67,0.0,3.0,74,0.00,,,0.01,,2013-02-15 02:21:00,
2013-02-14 21:32:00,37.0,31.0,30.03,West,269,1.0,3.0,78,0.00,,,0.01,,2013-02-15 02:32:00,
2013-02-14 21:41:00,37.0,31.0,30.03,West,269,1.0,3.0,78,0.00,,,0.01,,2013-02-15 02:41:00,
2013-02-14 21:52:00,36.0,31.0,30.04,South,173,1.0,2.0,81,0.00,,,0.01,,2013-02-15 02:52:00,
2013-02-14 22:02:00,36.0,31.0,30.05,South,173,0.0,0.0,81,0.00,,,0.01,,2013-02-15 03:02:00,
2013-02-14 22:11:00,36.0,31.0,30.05,South,173,0.0,0.0,81,0.00,,,0.01,,2013-02-15 03:11:00,
2013-02-14 22:22:00,36.0,31.0,30.05,South,173,0.0,0.0,81,0.00,,,0.01,,2013-02-15 03:22:00,
2013-02-14 22:32:00,34.0,30.0,30.06,South,173,0.0,2.0,84,0.00,,,0.01,,2013-02-15 03:32:00,
2013-02-14 22:42:00,34.0,30.0,30.06,South,173,0.0,2.0,84,0.00,,,0.01,,2013-02-15 03:42:00,
2013-02-14 22:51:00,34.0,30.0,30.05,South,191,0.0,1.0,85,0.00,,,0.01,,2013-02-15 03:51:00,
2013-02-14 23:02:00,34.0,30.0,30.06,South,191,0.0,1.0,85,0.00,,,0.01,,2013-02-15 04:02:00,
2013-02-14 23:11:00,34.0,30.0,30.06,South,191,0.0,1.0,85,0.00,,,0.01,,2013-02-15 04:11:00,
2013-02-14 23:21:00,33.0,29.0,30.05,South,191,0.0,1.0,85,0.00,,,0.01,,2013-02-15 04:21:00,
2013-02-14 23:32:00,32.0,29.0,30.05,South,191,0.0,2.0,87,0.00,,,0.01,,2013-02-15 04:32:00,
2013-02-14 23:42:00,32.0,29.0,30.05,South,191,0.0,2.0,87,0.00,,,0.01,,2013-02-15 04:42:00,
2013-02-14 23:52:00,33.0,30.0,30.05,SE,138,1.0,2.0,88,0.00,,,0.01,,2013-02-15 04:52:00,